createdAt,value
2019-02-17T00:01:43.465Z,99.90
2019-02-17T00:04:13.439Z,99.90
2019-02-17T00:06:43.352Z,99.90
2019-02-17T00:09:14.333Z,99.90
2019-02-17T00:11:44.385Z,99.90
2019-02-17T00:14:14.289Z,99.90
2019-02-17T00:16:44.277Z,99.90
2019-02-17T00:19:14.204Z,99.90
2019-02-17T00:21:44.108Z,99.90
2019-02-17T00:24:16.793Z,99.90
2019-02-17T00:26:46.732Z,99.90
2019-02-17T00:29:16.641Z,99.90
2019-02-17T00:31:46.653Z,99.90
2019-02-17T00:34:16.552Z,99.90
2019-02-17T00:36:46.488Z,99.90
2019-02-17T00:39:16.563Z,99.90
2019-02-17T00:41:46.541Z,99.90
2019-02-17T00:44:16.641Z,99.90
2019-02-17T00:46:46.557Z,99.90
2019-02-17T00:49:16.471Z,99.90
2019-02-17T00:51:46.451Z,99.90
2019-02-17T00:54:16.437Z,99.90
2019-02-17T00:56:47.828Z,99.90
2019-02-17T00:59:17.798Z,99.90
2019-02-17T01:01:47.814Z,99.90
2019-02-17T01:04:17.827Z,99.90
2019-02-17T01:06:47.838Z,99.90
2019-02-17T01:09:17.818Z,99.90
2019-02-17T01:11:47.820Z,99.90
2019-02-17T01:14:18.129Z,99.90
2019-02-17T01:16:48.041Z,99.90
2019-02-17T01:19:18.038Z,99.90
2019-02-17T01:21:48.337Z,99.90
2019-02-17T01:24:18.232Z,99.90
2019-02-17T01:26:48.141Z,99.90
2019-02-17T01:29:20.514Z,99.90
2019-02-17T01:31:49.825Z,99.90
2019-02-17T01:34:19.705Z,99.90
2019-02-17T01:36:49.625Z,99.90
2019-02-17T01:39:19.521Z,99.90
2019-02-17T01:41:49.528Z,99.90
2019-02-17T01:44:19.513Z,99.90
2019-02-17T01:46:49.429Z,99.90
2019-02-17T01:49:19.413Z,99.90
2019-02-17T01:51:49.367Z,99.90
2019-02-17T01:54:19.360Z,99.90
2019-02-17T01:56:49.241Z,99.90
2019-02-17T01:59:19.164Z,99.90
2019-02-17T02:01:49.164Z,99.90
2019-02-17T02:04:19.080Z,99.90
2019-02-17T02:06:48.990Z,99.90
2019-02-17T02:09:18.908Z,99.90
2019-02-17T02:11:48.889Z,99.90
2019-02-17T02:14:18.901Z,99.90
2019-02-17T02:16:48.880Z,99.90
2019-02-17T02:19:18.979Z,99.90
2019-02-17T02:21:48.876Z,99.90
2019-02-17T02:24:18.833Z,99.90
2019-02-17T02:26:48.735Z,99.90
2019-02-17T02:29:18.673Z,99.90
2019-02-17T02:31:48.580Z,99.90
2019-02-17T02:34:18.488Z,99.90
2019-02-17T02:36:48.388Z,99.90
2019-02-17T02:39:18.350Z,99.90
2019-02-17T02:41:48.217Z,99.90
2019-02-17T02:44:18.321Z,99.90
2019-02-17T02:46:48.240Z,99.90
2019-02-17T02:49:18.248Z,99.90
2019-02-17T02:51:48.240Z,99.90
2019-02-17T02:54:18.842Z,99.90
2019-02-17T02:56:48.764Z,99.90
2019-02-17T02:59:18.720Z,99.90
2019-02-17T03:01:48.696Z,99.90
2019-02-17T03:04:18.709Z,99.90
2019-02-17T03:06:56.732Z,99.90
2019-02-17T03:09:26.666Z,99.90
2019-02-17T03:11:56.581Z,99.90
2019-02-17T03:14:26.495Z,99.90
2019-02-17T03:16:56.553Z,99.90
2019-02-17T03:19:26.513Z,99.90
2019-02-17T03:21:56.408Z,99.90
2019-02-17T03:24:26.326Z,99.90
2019-02-17T03:26:56.241Z,99.90
2019-02-17T03:29:26.191Z,99.90
2019-02-17T03:31:56.207Z,99.90
2019-02-17T03:34:26.133Z,99.90
2019-02-17T03:36:56.062Z,99.90
2019-02-17T03:39:25.990Z,99.90
2019-02-17T03:41:55.969Z,99.90
2019-02-17T03:44:25.988Z,99.90
2019-02-17T03:46:55.905Z,99.90
2019-02-17T03:49:25.855Z,99.90
2019-02-17T03:51:55.838Z,99.90
2019-02-17T03:54:25.839Z,99.90
2019-02-17T03:56:55.746Z,99.90
2019-02-17T03:59:25.705Z,99.90
2019-02-17T04:01:55.615Z,99.90
2019-02-17T04:04:25.584Z,99.90
2019-02-17T04:06:55.496Z,99.90
2019-02-17T04:09:25.518Z,99.90
2019-02-17T04:11:55.510Z,99.90
2019-02-17T04:14:25.534Z,99.90
2019-02-17T04:16:55.481Z,99.90
2019-02-17T04:19:25.433Z,99.90
2019-02-17T04:21:55.396Z,99.90
2019-02-17T04:24:25.335Z,99.90
2019-02-17T04:26:55.237Z,99.90
2019-02-17T04:29:25.174Z,99.90
2019-02-17T04:31:55.060Z,99.90
2019-02-17T04:34:25.079Z,99.90
2019-02-17T04:36:55.014Z,99.90
2019-02-17T04:39:25.081Z,99.90
2019-02-17T04:41:54.970Z,99.90
2019-02-17T04:44:25.088Z,99.90
2019-02-17T04:46:55.702Z,99.90
2019-02-17T04:49:25.934Z,99.90
2019-02-17T04:51:56.152Z,99.90
2019-02-17T04:54:26.072Z,99.90
2019-02-17T04:56:56.375Z,99.90
2019-02-17T04:59:26.416Z,99.90
2019-02-17T05:01:56.547Z,99.90
2019-02-17T05:04:26.474Z,99.90
2019-02-17T05:06:56.621Z,99.90
2019-02-17T05:09:26.514Z,99.90
2019-02-17T05:11:56.470Z,99.90
2019-02-17T05:14:26.728Z,99.90
2019-02-17T05:16:56.644Z,99.90
2019-02-17T05:19:26.636Z,99.90
2019-02-17T05:21:56.645Z,99.90
2019-02-17T05:24:26.767Z,99.90
2019-02-17T05:26:59.732Z,99.90
2019-02-17T05:29:29.847Z,99.90
2019-02-17T05:31:59.765Z,99.90
2019-02-17T05:34:29.697Z,99.90
2019-02-17T05:36:59.797Z,99.90
2019-02-17T05:39:29.800Z,99.90
2019-02-17T05:41:59.794Z,99.90
2019-02-17T05:44:29.886Z,99.90
2019-02-17T05:46:59.894Z,99.90
2019-02-17T05:49:30.045Z,99.90
2019-02-17T05:52:00.004Z,99.90
2019-02-17T05:54:29.916Z,99.90
2019-02-17T05:56:59.909Z,99.90
2019-02-17T05:59:29.818Z,99.90
2019-02-17T06:02:00.004Z,99.90
2019-02-17T06:04:29.920Z,99.90
2019-02-17T06:07:00.104Z,99.90
2019-02-17T06:09:30.321Z,99.90
2019-02-17T06:12:00.305Z,99.90
2019-02-17T06:14:30.290Z,99.90
2019-02-17T06:17:00.302Z,99.90
2019-02-17T06:19:30.782Z,99.90
2019-02-17T06:22:01.059Z,99.90
2019-02-17T06:24:30.963Z,99.90
2019-02-17T06:27:00.962Z,99.90
2019-02-17T06:29:30.895Z,99.90
2019-02-17T06:32:03.278Z,99.90
2019-02-17T06:34:33.361Z,99.90
2019-02-17T06:37:03.352Z,99.90
2019-02-17T06:39:33.352Z,99.90
2019-02-17T06:42:03.376Z,99.90
2019-02-17T06:44:33.314Z,99.90
2019-02-17T06:47:05.634Z,99.90
2019-02-17T06:49:35.572Z,99.90
2019-02-17T06:52:05.562Z,99.90
2019-02-17T06:54:35.475Z,99.90
2019-02-17T06:57:18.305Z,99.90
2019-02-17T06:59:48.289Z,99.90
2019-02-17T07:02:18.287Z,99.90
2019-02-17T07:05:13.664Z,99.90
2019-02-17T07:07:43.592Z,99.90
2019-02-17T07:10:13.543Z,99.90
2019-02-17T07:12:43.422Z,99.90
2019-02-17T07:15:15.377Z,99.90
2019-02-17T07:17:45.336Z,99.90
2019-02-17T07:20:16.343Z,99.90
2019-02-17T07:22:46.264Z,99.90
2019-02-17T07:25:16.165Z,99.90
2019-02-17T07:27:46.551Z,99.90
2019-02-17T07:30:16.523Z,99.90
2019-02-17T07:32:46.428Z,99.90
2019-02-17T07:35:16.331Z,99.90
2019-02-17T07:37:46.245Z,99.90
2019-02-17T07:40:16.276Z,99.90
2019-02-17T07:42:46.189Z,99.90
2019-02-17T07:45:16.179Z,99.90
2019-02-17T07:47:46.123Z,99.90
2019-02-17T07:50:16.017Z,98.80
2019-02-17T07:52:46.323Z,97.00
2019-02-17T07:55:16.359Z,93.90
2019-02-17T07:57:46.368Z,91.80
2019-02-17T08:00:16.429Z,92.20
2019-02-17T08:02:46.348Z,90.60
2019-02-17T08:05:16.345Z,90.40
2019-02-17T08:07:46.288Z,90.90
2019-02-17T08:10:17.094Z,94.90
2019-02-17T08:12:47.028Z,93.20
2019-02-17T08:15:16.947Z,92.40
2019-02-17T08:17:46.899Z,92.40
2019-02-17T08:20:16.855Z,91.30
2019-02-17T08:22:46.854Z,90.80
2019-02-17T08:25:21.893Z,88.80
2019-02-17T08:27:48.309Z,87.60
2019-02-17T08:30:18.405Z,90.60
2019-02-17T08:32:48.409Z,92.60
2019-02-17T08:35:18.338Z,99.90
2019-02-17T08:37:48.324Z,94.40
2019-02-17T08:40:18.260Z,94.10
2019-02-17T08:42:48.237Z,93.00
2019-02-17T08:45:18.332Z,93.50
2019-02-17T08:47:48.309Z,93.50
2019-02-17T08:50:19.896Z,95.00
2019-02-17T08:52:49.765Z,94.30
2019-02-17T08:55:19.788Z,93.10
2019-02-17T08:57:49.682Z,92.90
2019-02-17T09:00:19.681Z,90.70
2019-02-17T09:02:49.851Z,87.60
2019-02-17T09:05:19.789Z,89.60
2019-02-17T09:07:49.766Z,89.40
2019-02-17T09:10:19.703Z,90.00
2019-02-17T09:12:49.705Z,88.20
2019-02-17T09:15:19.820Z,88.70
2019-02-17T09:17:49.731Z,87.10
2019-02-17T09:20:19.848Z,86.60
2019-02-17T09:22:49.790Z,86.20
2019-02-17T09:25:19.811Z,87.40
2019-02-17T09:27:49.777Z,84.10
2019-02-17T09:32:50.291Z,84.00
2019-02-17T09:35:20.321Z,82.60
2019-02-17T09:41:25.017Z,84.50
2019-02-17T09:43:54.926Z,85.00
2019-02-17T09:46:24.875Z,87.60
2019-02-17T09:48:55.853Z,89.80
2019-02-17T09:51:25.873Z,92.90
2019-02-17T09:53:55.798Z,96.50
2019-02-17T09:56:26.034Z,97.80
2019-02-17T09:58:55.926Z,98.50
2019-02-17T10:01:25.885Z,99.90
2019-02-17T10:03:55.784Z,99.90
2019-02-17T10:06:25.728Z,99.90
2019-02-17T10:08:55.844Z,99.90
2019-02-17T10:11:25.990Z,99.90
2019-02-17T10:13:56.322Z,99.90
2019-02-17T10:16:26.239Z,99.90
2019-02-17T10:18:56.186Z,99.90
2019-02-17T10:21:26.465Z,99.90
2019-02-17T10:23:56.790Z,99.90
2019-02-17T10:26:27.062Z,99.90
2019-02-17T10:28:57.076Z,99.90
2019-02-17T10:31:27.144Z,99.90
2019-02-17T10:33:57.152Z,99.90
2019-02-17T10:36:27.081Z,99.90
2019-02-17T10:38:58.520Z,99.90
2019-02-17T10:41:28.623Z,99.90
2019-02-17T10:43:58.523Z,99.90
2019-02-17T10:46:28.587Z,99.90
2019-02-17T10:48:58.603Z,99.90
2019-02-17T10:51:28.536Z,99.90
2019-02-17T10:53:58.742Z,99.90
2019-02-17T10:56:28.696Z,99.90
2019-02-17T10:58:58.696Z,99.90
2019-02-17T11:01:29.691Z,99.90
2019-02-17T11:04:04.752Z,99.90
2019-02-17T11:06:35.781Z,99.90
2019-02-17T11:09:17.480Z,99.90
2019-02-17T11:11:47.398Z,99.90
2019-02-17T11:14:17.387Z,99.90
2019-02-17T11:16:47.527Z,99.90
2019-02-17T11:19:17.475Z,99.90
2019-02-17T11:21:47.484Z,99.90
2019-02-17T11:24:17.404Z,99.90
2019-02-17T11:26:47.338Z,99.90
2019-02-17T11:29:17.253Z,99.90
2019-02-17T11:31:47.160Z,99.90
2019-02-17T11:34:17.174Z,99.90
2019-02-17T11:36:47.131Z,99.90
2019-02-17T11:39:21.467Z,99.20
2019-02-17T11:41:51.375Z,98.10
2019-02-17T11:44:21.370Z,98.10
2019-02-17T11:46:51.274Z,99.00
2019-02-17T11:49:21.177Z,95.70
2019-02-17T11:51:51.182Z,98.40
2019-02-17T11:54:21.104Z,98.10
2019-02-17T11:56:51.181Z,99.00
2019-02-17T11:59:21.079Z,99.60
2019-02-17T12:01:50.988Z,98.50
2019-02-17T12:04:20.973Z,99.90
2019-02-17T12:06:50.968Z,99.90
2019-02-17T12:09:20.903Z,99.90
2019-02-17T12:11:50.802Z,99.90
2019-02-17T12:14:20.697Z,99.80
2019-02-17T12:16:50.628Z,98.70
2019-02-17T12:19:20.563Z,99.00
2019-02-17T12:22:21.801Z,97.80
2019-02-17T12:25:05.216Z,98.60
2019-02-17T12:27:57.271Z,99.30
2019-02-17T12:30:27.230Z,99.20
2019-02-17T12:32:57.219Z,98.10
2019-02-17T12:35:27.120Z,97.00
2019-02-17T12:37:57.099Z,98.60
2019-02-17T12:40:27.132Z,97.30
2019-02-17T12:42:57.065Z,94.40
2019-02-17T12:45:26.968Z,95.70
2019-02-17T12:47:58.362Z,94.80
2019-02-17T12:50:28.704Z,94.00
2019-02-17T12:52:58.605Z,94.40
2019-02-17T12:55:28.617Z,93.00
2019-02-17T13:01:49.273Z,95.60
2019-02-17T13:04:20.157Z,94.20
2019-02-17T13:06:50.519Z,96.00
2019-02-17T13:09:20.523Z,95.40
2019-02-17T13:11:50.432Z,95.00
2019-02-17T13:14:38.645Z,95.30
2019-02-17T13:17:11.732Z,94.20
2019-02-17T13:19:41.974Z,94.30
2019-02-17T13:22:11.881Z,92.80
2019-02-17T13:24:41.935Z,93.60
2019-02-17T13:27:11.315Z,92.60
2019-02-17T13:29:42.641Z,91.70
2019-02-17T13:32:12.602Z,92.80
2019-02-17T13:34:42.591Z,93.40
2019-02-17T13:37:12.575Z,92.00
2019-02-17T13:39:42.576Z,91.90
2019-02-17T13:42:12.575Z,94.60
2019-02-17T13:44:42.635Z,92.80
2019-02-17T13:47:12.709Z,93.90
2019-02-17T13:49:43.035Z,93.80
2019-02-17T13:52:13.148Z,93.90
2019-02-17T13:54:43.482Z,92.90
2019-02-17T13:57:13.762Z,93.60
2019-02-17T13:59:45.580Z,94.60
2019-02-17T14:02:15.578Z,94.20
2019-02-17T14:04:45.656Z,91.20
2019-02-17T14:07:15.625Z,91.30
2019-02-17T14:09:45.566Z,90.20
2019-02-17T14:12:15.473Z,91.00
2019-02-17T14:14:45.484Z,93.40
2019-02-17T14:17:33.424Z,91.20
2019-02-17T14:20:02.497Z,91.50
2019-02-17T14:22:50.343Z,91.20
2019-02-17T14:25:21.703Z,90.50
2019-02-17T14:27:51.635Z,92.20
2019-02-17T14:30:21.586Z,90.70
2019-02-17T14:32:51.576Z,90.00
2019-02-17T14:35:21.601Z,92.30
2019-02-17T14:37:51.501Z,91.60
2019-02-17T14:40:21.927Z,90.80
2019-02-17T14:42:51.927Z,93.90
2019-02-17T14:45:21.850Z,93.80
2019-02-17T14:47:51.745Z,93.60
2019-02-17T14:50:22.373Z,95.30
2019-02-17T14:52:52.297Z,95.30
2019-02-17T14:55:22.240Z,93.50
2019-02-17T14:57:52.157Z,94.80
2019-02-17T15:00:22.067Z,96.00
2019-02-17T15:02:52.040Z,96.40
2019-02-17T15:05:21.956Z,97.30
2019-02-17T15:07:51.926Z,97.20
2019-02-17T15:10:21.852Z,98.60
2019-02-17T15:12:51.753Z,99.30
2019-02-17T15:15:21.680Z,99.80
2019-02-17T15:17:51.673Z,99.90
2019-02-17T15:20:21.784Z,99.90
2019-02-17T15:22:52.059Z,99.90
2019-02-17T15:25:22.076Z,99.50
2019-02-17T15:27:52.003Z,99.90
2019-02-17T15:30:21.985Z,99.90
2019-02-17T15:32:51.969Z,99.90
2019-02-17T15:35:22.531Z,99.90
2019-02-17T15:37:52.526Z,99.90
2019-02-17T15:40:23.521Z,99.90
2019-02-17T15:42:53.615Z,99.90
2019-02-17T15:45:23.604Z,99.90
2019-02-17T15:47:53.492Z,99.90
2019-02-17T15:50:23.630Z,99.90
2019-02-17T15:52:53.526Z,99.90
2019-02-17T15:55:23.946Z,99.90
2019-02-17T15:57:53.917Z,99.90
2019-02-17T16:00:23.902Z,99.90
2019-02-17T16:02:54.175Z,99.90
2019-02-17T16:05:24.612Z,99.90
2019-02-17T16:07:55.430Z,99.90
2019-02-17T16:10:25.307Z,99.90
2019-02-17T16:12:55.594Z,99.90
2019-02-17T16:15:25.630Z,99.90
2019-02-17T16:17:55.547Z,99.90
2019-02-17T16:20:25.566Z,99.90
2019-02-17T16:22:55.470Z,99.90
2019-02-17T16:25:25.390Z,99.90
2019-02-17T16:27:55.305Z,99.90
2019-02-17T16:30:25.220Z,99.90
2019-02-17T16:32:55.188Z,99.90
2019-02-17T16:35:25.183Z,99.90
2019-02-17T16:37:56.490Z,99.90
2019-02-17T16:40:26.412Z,99.90
2019-02-17T16:42:56.375Z,99.90
2019-02-17T16:45:26.614Z,99.90
2019-02-17T16:47:56.439Z,99.90
2019-02-17T16:50:26.567Z,99.90
2019-02-17T16:52:56.520Z,99.90
2019-02-17T16:55:26.397Z,99.90
2019-02-17T16:57:56.397Z,99.90
2019-02-17T17:00:26.342Z,99.90
2019-02-17T17:02:56.373Z,99.90
2019-02-17T17:05:27.970Z,99.90
2019-02-17T17:07:58.027Z,99.90
2019-02-17T17:10:28.034Z,99.90
2019-02-17T17:12:58.000Z,99.90
2019-02-17T17:15:27.927Z,99.90
2019-02-17T17:17:57.919Z,99.90
2019-02-17T17:20:27.913Z,99.90
2019-02-17T17:22:57.888Z,99.90
2019-02-17T17:25:29.115Z,99.90
2019-02-17T17:27:59.076Z,99.90
2019-02-17T17:30:29.001Z,99.90
2019-02-17T17:32:59.775Z,99.90
2019-02-17T17:35:29.790Z,99.90
2019-02-17T17:37:59.796Z,99.90
2019-02-17T17:40:29.738Z,99.90
2019-02-17T17:42:59.847Z,99.90
2019-02-17T17:45:29.941Z,99.90
2019-02-17T17:47:59.951Z,99.90
2019-02-17T17:50:29.845Z,99.90
2019-02-17T17:53:00.513Z,99.90
2019-02-17T17:55:33.117Z,99.90
2019-02-17T17:58:03.093Z,99.90
2019-02-17T18:00:34.071Z,99.90
2019-02-17T18:03:04.136Z,99.90
2019-02-17T18:05:34.255Z,99.90
2019-02-17T18:08:04.187Z,99.90
2019-02-17T18:10:34.080Z,99.90
2019-02-17T18:13:04.023Z,99.90
2019-02-17T18:15:33.912Z,99.90
2019-02-17T18:18:03.841Z,99.90
2019-02-17T18:20:33.843Z,99.90
2019-02-17T18:23:03.867Z,99.90
2019-02-17T18:25:33.777Z,99.90
2019-02-17T18:28:05.833Z,99.90
2019-02-17T18:30:35.738Z,99.90
2019-02-17T18:33:05.663Z,99.90
2019-02-17T18:35:35.551Z,99.90
2019-02-17T18:38:05.527Z,99.90
2019-02-17T18:40:44.691Z,99.90
2019-02-17T18:43:08.060Z,99.90
2019-02-17T18:45:37.965Z,99.90
2019-02-17T18:48:08.157Z,99.90
2019-02-17T18:50:38.121Z,99.90
2019-02-17T18:53:08.348Z,99.90
2019-02-17T18:55:39.097Z,99.90
2019-02-17T18:58:09.985Z,99.90
2019-02-17T19:00:40.242Z,99.90
2019-02-17T19:03:11.162Z,99.90
2019-02-17T19:05:41.214Z,99.90
2019-02-17T19:08:11.431Z,99.90
2019-02-17T19:10:41.329Z,99.90
2019-02-17T19:13:11.379Z,99.90
2019-02-17T19:15:41.248Z,99.90
2019-02-17T19:18:11.344Z,99.90
2019-02-17T19:20:41.328Z,99.90
2019-02-17T19:23:11.322Z,99.90
2019-02-17T19:25:41.212Z,99.90
2019-02-17T19:28:11.135Z,99.90
2019-02-17T19:30:41.114Z,99.90
2019-02-17T19:33:11.097Z,99.90
2019-02-17T19:35:42.203Z,99.90
2019-02-17T19:38:12.385Z,99.90
2019-02-17T19:40:42.283Z,99.90
2019-02-17T19:43:12.296Z,99.90
2019-02-17T19:45:42.770Z,99.90
2019-02-17T19:48:12.773Z,99.90
2019-02-17T19:50:44.445Z,99.90
2019-02-17T19:53:14.378Z,99.90
2019-02-17T19:55:44.382Z,99.90
2019-02-17T19:58:14.292Z,99.90
2019-02-17T20:00:44.260Z,99.90
2019-02-17T20:03:42.352Z,99.90
2019-02-17T20:06:14.050Z,99.90
2019-02-17T20:08:44.038Z,99.90
2019-02-17T20:11:14.008Z,99.90
2019-02-17T20:13:44.044Z,99.90
2019-02-17T20:16:14.072Z,99.90
2019-02-17T20:18:44.054Z,99.90
2019-02-17T20:21:14.156Z,99.90
2019-02-17T20:23:44.249Z,99.90
2019-02-17T20:26:14.140Z,99.90
2019-02-17T20:28:44.122Z,99.90
2019-02-17T20:31:14.224Z,99.90
2019-02-17T20:33:44.124Z,99.90
2019-02-17T20:36:14.034Z,99.90
2019-02-17T20:38:43.969Z,99.90
2019-02-17T20:41:13.873Z,99.90
2019-02-17T20:43:43.780Z,99.90
2019-02-17T20:46:14.042Z,99.90
2019-02-17T20:48:44.057Z,99.90
2019-02-17T20:51:14.033Z,99.90
2019-02-17T20:53:44.112Z,99.90
2019-02-17T20:56:14.071Z,99.90
2019-02-17T20:58:44.011Z,99.90
2019-02-17T21:01:13.910Z,99.90
2019-02-17T21:03:43.831Z,99.90
2019-02-17T21:06:13.724Z,99.90
2019-02-17T21:08:43.887Z,99.90
2019-02-17T21:11:13.889Z,99.90
2019-02-17T21:13:43.795Z,99.90
2019-02-17T21:16:13.791Z,99.90
2019-02-17T21:18:43.755Z,99.90
2019-02-17T21:21:13.723Z,99.90
2019-02-17T21:23:43.641Z,99.90
2019-02-17T21:26:13.603Z,99.90
2019-02-17T21:28:43.538Z,99.90
2019-02-17T21:31:13.475Z,99.90
2019-02-17T21:33:43.648Z,99.90
2019-02-17T21:36:22.997Z,99.90
2019-02-17T21:38:45.160Z,99.90
2019-02-17T21:41:15.136Z,99.90
2019-02-17T21:43:45.137Z,99.90
2019-02-17T21:46:15.041Z,99.90
2019-02-17T21:48:45.053Z,99.90
2019-02-17T21:51:14.953Z,99.90
2019-02-17T21:53:44.873Z,99.90
2019-02-17T21:56:14.784Z,99.90
2019-02-17T21:58:44.801Z,99.90
2019-02-17T22:01:14.776Z,99.90
2019-02-17T22:03:44.705Z,99.90
2019-02-17T22:06:14.589Z,99.90
2019-02-17T22:08:44.502Z,99.90
2019-02-17T22:11:14.427Z,99.90
2019-02-17T22:13:44.346Z,99.90
2019-02-17T22:16:14.389Z,99.90
2019-02-17T22:18:44.409Z,99.90
2019-02-17T22:21:14.322Z,99.90
2019-02-17T22:23:44.242Z,99.90
2019-02-17T22:26:14.129Z,99.90
2019-02-17T22:28:44.053Z,99.90
2019-02-17T22:31:13.967Z,99.90
2019-02-17T22:33:43.892Z,99.90
2019-02-17T22:36:13.879Z,99.90
2019-02-17T22:38:43.829Z,99.90
2019-02-17T22:41:13.861Z,99.90
2019-02-17T22:43:43.785Z,99.90
2019-02-17T22:46:13.694Z,99.90
2019-02-17T22:48:43.609Z,99.90
2019-02-17T22:51:13.601Z,99.90
2019-02-17T22:53:44.233Z,99.90
2019-02-17T22:56:14.348Z,99.90
2019-02-17T22:58:44.252Z,99.90
2019-02-17T23:01:17.933Z,99.90
2019-02-17T23:03:47.903Z,99.90
2019-02-17T23:06:17.864Z,99.90
2019-02-17T23:08:47.753Z,99.90
2019-02-17T23:11:17.722Z,99.90
2019-02-17T23:13:47.725Z,99.90
2019-02-17T23:16:17.679Z,99.90
2019-02-17T23:18:47.619Z,99.90
2019-02-17T23:21:17.609Z,99.90
2019-02-17T23:23:47.507Z,99.90
2019-02-17T23:26:17.439Z,99.90
2019-02-17T23:28:47.333Z,99.90
2019-02-17T23:31:17.244Z,99.90
2019-02-17T23:33:47.224Z,99.90
2019-02-17T23:36:17.229Z,99.90
2019-02-17T23:38:47.131Z,99.90
2019-02-17T23:41:17.042Z,99.90
2019-02-17T23:43:46.945Z,99.90
2019-02-17T23:46:16.983Z,99.90
2019-02-17T23:48:46.877Z,99.90
2019-02-17T23:51:16.803Z,99.90
2019-02-17T23:53:46.703Z,99.90
2019-02-17T23:56:16.639Z,99.90
2019-02-17T23:58:46.527Z,99.90
